Terminal Aerodrome Forecast
Issued by NWS State College, PA

Home | Current Version | Previous Version | Text Only | Print | Product List | Glossary On
Versions: 1 2 3 4 5 6 7 8 9 10 11 12 13 14 15 16 17 18 19 20 21 22 23 24 25 26 27 28 29 30 31 32 33 34 35 36 37 38 39 40 41 42 43 44 45 46 47 48 49
000
FTUS41 KCTP 291125
TAFIPT
TAF
KIPT 291125Z 2912/3012 00000KT P6SM SCT070
     FM291800 21004KT P6SM BKN050
     FM292200 21002KT P6SM -SHRA OVC100
     FM300400 VRB02KT 4SM -RA BR BKN050 OVC100=

USA.gov is the U.S. government's official web portal to all federal, state and local government web resources and services.